createdAt,value
2023-01-22T00:03:15.255Z,0.2
2023-01-22T00:08:23.414Z,0.2
2023-01-22T00:13:31.640Z,0.2
2023-01-22T00:18:39.760Z,0.1
2023-01-22T00:23:47.977Z,0.2
2023-01-22T00:28:56.129Z,0.2
2023-01-22T00:34:04.267Z,0.2
2023-01-22T00:39:12.452Z,0.2
2023-01-22T00:44:20.619Z,0.2
2023-01-22T00:49:28.809Z,0.2
2023-01-22T00:54:37.003Z,0.2
2023-01-22T00:59:45.187Z,0.2
2023-01-22T01:04:53.313Z,0.2
2023-01-22T01:10:01.505Z,0.2
2023-01-22T01:15:09.774Z,0.2
2023-01-22T01:20:17.885Z,0.1
2023-01-22T01:25:26.032Z,0.2
2023-01-22T01:30:34.212Z,0.1
2023-01-22T01:35:42.413Z,0.1
2023-01-22T01:40:50.666Z,0.1
2023-01-22T01:45:58.795Z,0.2
2023-01-22T01:51:06.932Z,0.1
2023-01-22T01:56:15.114Z,0.2
2023-01-22T02:01:23.439Z,0.2
2023-01-22T02:06:31.470Z,0.2
2023-01-22T02:11:39.645Z,0.2
2023-01-22T02:16:47.863Z,0.2
2023-01-22T02:21:55.980Z,0.2
2023-01-22T02:27:04.169Z,0.2
2023-01-22T02:32:12.339Z,0.2
2023-01-22T02:37:20.517Z,0.2
2023-01-22T02:42:28.883Z,0.2
2023-01-22T02:47:36.866Z,0.2
2023-01-22T02:52:45.079Z,0.1
2023-01-22T02:57:53.224Z,0.2
2023-01-22T03:03:01.427Z,0.1
2023-01-22T03:08:09.640Z,0.1
2023-01-22T03:13:17.792Z,0.1
2023-01-22T03:18:25.930Z,0.1
2023-01-22T03:23:34.107Z,0.1
2023-01-22T03:28:42.280Z,0.1
2023-01-22T03:33:50.487Z,0.1
2023-01-22T03:38:58.673Z,0.1
2023-01-22T03:44:06.827Z,0.1
2023-01-22T03:49:15.032Z,0.1
2023-01-22T03:54:23.176Z,0.1
2023-01-22T03:59:31.361Z,0.1
2023-01-22T04:04:39.622Z,0.1
2023-01-22T04:09:47.697Z,0.1
2023-01-22T04:14:55.877Z,0.1
2023-01-22T04:20:04.105Z,0.1
2023-01-22T04:25:12.238Z,0.1
2023-01-22T04:30:20.479Z,0.1
2023-01-22T04:35:28.597Z,0.1
2023-01-22T04:40:36.777Z,0.1
2023-01-22T04:45:44.955Z,0.1
2023-01-22T04:50:53.266Z,0.1
2023-01-22T04:56:01.383Z,0.1
2023-01-22T05:01:09.477Z,0.1
2023-01-22T05:06:17.694Z,0.1
2023-01-22T05:11:25.860Z,0.1
2023-01-22T05:16:34.019Z,0.1
2023-01-22T05:21:42.231Z,0.1
2023-01-22T05:26:50.350Z,0
2023-01-22T05:31:58.532Z,0
2023-01-22T05:37:06.710Z,0
2023-01-22T05:42:14.899Z,0
2023-01-22T05:47:23.072Z,0
2023-01-22T05:52:31.321Z,0
2023-01-22T05:57:39.566Z,0
2023-01-22T06:02:47.597Z,0
2023-01-22T06:07:55.816Z,0
2023-01-22T06:13:03.980Z,0
2023-01-22T06:18:12.155Z,0
2023-01-22T06:23:20.333Z,0
2023-01-22T06:28:28.525Z,0
2023-01-22T06:33:36.685Z,0
2023-01-22T06:38:44.873Z,0
2023-01-22T06:43:53.048Z,0
2023-01-22T06:49:01.216Z,0
2023-01-22T06:54:09.418Z,0
2023-01-22T06:59:17.583Z,0
2023-01-22T07:04:25.770Z,0
2023-01-22T07:09:33.940Z,0.1
2023-01-22T07:14:42.116Z,0.1
2023-01-22T07:19:50.464Z,0.1
2023-01-22T07:24:58.647Z,0.1
2023-01-22T07:30:06.789Z,0.1
2023-01-22T07:35:14.825Z,0.1
2023-01-22T07:40:23.064Z,0.1
2023-01-22T07:45:31.221Z,0.2
2023-01-22T07:50:39.365Z,0.2
2023-01-22T07:55:47.531Z,0.2
2023-01-22T08:00:55.694Z,0.3
2023-01-22T08:06:03.918Z,0.3
2023-01-22T08:11:12.053Z,0.3
2023-01-22T08:16:20.233Z,0.3
2023-01-22T08:21:28.452Z,0.3
2023-01-22T08:26:36.648Z,0.3
2023-01-22T08:31:44.763Z,0.2
2023-01-22T08:36:52.957Z,0.2
2023-01-22T08:42:01.145Z,0.2
2023-01-22T08:47:09.285Z,0.2
2023-01-22T08:52:17.455Z,0.3
2023-01-22T08:57:25.638Z,0.4
2023-01-22T09:02:33.814Z,0.5
2023-01-22T09:07:41.999Z,0.6
2023-01-22T09:12:50.174Z,0.6
2023-01-22T09:17:58.376Z,0.6
2023-01-22T09:23:06.564Z,0.7
2023-01-22T09:28:14.695Z,0.7
2023-01-22T09:33:22.875Z,0.7
2023-01-22T09:38:31.070Z,0.7
2023-01-22T09:43:39.228Z,0.7
2023-01-22T09:48:47.413Z,0.7
2023-01-22T09:53:55.589Z,0.7
2023-01-22T09:59:03.749Z,0.7
2023-01-22T10:04:12.105Z,0.7
2023-01-22T10:09:20.271Z,0.7
2023-01-22T10:14:28.461Z,0.7
2023-01-22T10:19:36.632Z,0.8
2023-01-22T10:24:44.811Z,0.8
2023-01-22T10:29:52.978Z,0.9
2023-01-22T10:35:01.175Z,1
2023-01-22T10:40:09.343Z,1
2023-01-22T10:45:17.544Z,1
2023-01-22T10:50:25.681Z,1
2023-01-22T10:55:33.843Z,1.1
2023-01-22T11:00:42.026Z,1.3
2023-01-22T11:05:50.248Z,1.4
2023-01-22T11:10:58.412Z,1.3
2023-01-22T11:16:06.554Z,1.4
2023-01-22T11:21:14.737Z,1.3
2023-01-22T11:26:22.900Z,1.2
2023-01-22T11:31:31.079Z,1.2
2023-01-22T11:36:39.250Z,1.2
2023-01-22T11:41:47.427Z,1
2023-01-22T11:46:55.604Z,1.1
2023-01-22T11:52:03.774Z,1.1
2023-01-22T11:57:11.959Z,1.1
2023-01-22T12:02:20.142Z,1.1
2023-01-22T12:07:28.293Z,1.1
2023-01-22T12:12:36.489Z,1.1
2023-01-22T12:17:44.647Z,1.1
2023-01-22T12:22:52.833Z,1.1
2023-01-22T12:28:00.992Z,1.1
2023-01-22T12:33:09.163Z,1.1
2023-01-22T12:38:17.352Z,1
2023-01-22T12:43:25.528Z,1.1
2023-01-22T12:48:33.697Z,1
2023-01-22T12:53:41.894Z,1.1
2023-01-22T12:58:50.056Z,1
2023-01-22T13:03:58.227Z,1
2023-01-22T13:09:06.478Z,1
2023-01-22T13:14:14.661Z,0.9
2023-01-22T13:19:22.768Z,0.9
2023-01-22T13:24:30.962Z,0.9
2023-01-22T13:29:39.147Z,1
2023-01-22T13:34:47.294Z,0.9
2023-01-22T13:39:55.460Z,0.9
2023-01-22T13:45:03.703Z,0.9
2023-01-22T13:50:11.827Z,0.9
2023-01-22T13:55:20.101Z,0.9
2023-01-22T14:00:28.202Z,0.9
2023-01-22T14:05:36.375Z,0.8
2023-01-22T14:10:44.523Z,0.8
2023-01-22T14:15:52.716Z,0.7
2023-01-22T14:21:00.870Z,0.7
2023-01-22T14:26:09.056Z,0.6
2023-01-22T14:31:17.227Z,0.6
2023-01-22T14:36:25.403Z,0.6
2023-01-22T14:41:33.582Z,0.6
2023-01-22T14:46:41.838Z,0.6
2023-01-22T14:51:49.931Z,0.6
2023-01-22T14:56:58.106Z,0.5
2023-01-22T15:02:06.282Z,0.5
2023-01-22T15:07:14.453Z,0.5
2023-01-22T15:12:22.652Z,0.5
2023-01-22T15:17:30.810Z,0.5
2023-01-22T15:22:39.011Z,0.5
2023-01-22T15:27:47.272Z,0.4
2023-01-22T15:32:55.429Z,0.4
2023-01-22T15:38:03.600Z,0.4
2023-01-22T15:43:11.775Z,0.4
2023-01-22T15:48:19.948Z,0.4
2023-01-22T15:53:28.115Z,0.4
2023-01-22T15:58:36.302Z,0.4
2023-01-22T16:03:44.489Z,0.3
2023-01-22T16:08:52.655Z,0.3
2023-01-22T16:14:00.830Z,0.3
2023-01-22T16:19:08.998Z,0.3
2023-01-22T16:24:17.187Z,0.3
2023-01-22T16:29:25.364Z,0.3
2023-01-22T16:34:33.576Z,0.3
2023-01-22T16:39:41.730Z,0.3
2023-01-22T16:44:49.881Z,0.3
2023-01-22T16:49:58.077Z,0.3
2023-01-22T16:55:06.230Z,0.3
2023-01-22T17:00:14.426Z,0.3
2023-01-22T17:05:22.594Z,0.3
2023-01-22T17:10:30.785Z,0.3
2023-01-22T17:15:38.947Z,0.2
2023-01-22T17:20:47.144Z,0.3
2023-01-22T17:25:55.303Z,0.3
2023-01-22T17:31:03.657Z,0.3
2023-01-22T17:36:11.944Z,0.3
2023-01-22T17:41:20.049Z,0.3
2023-01-22T17:46:28.236Z,0.2
2023-01-22T17:51:36.373Z,0.2
2023-01-22T17:56:44.459Z,0.2
2023-01-22T18:01:52.684Z,0.2
2023-01-22T18:07:00.770Z,0.2
2023-01-22T18:12:09.039Z,0.2
2023-01-22T18:17:17.185Z,0.2
2023-01-22T18:22:25.261Z,0.2
2023-01-22T18:27:33.457Z,0.2
2023-01-22T18:32:41.744Z,0.2
2023-01-22T18:37:49.788Z,0.2
2023-01-22T18:42:57.952Z,0.2
2023-01-22T18:48:06.124Z,0.2
2023-01-22T18:53:14.338Z,0.2
2023-01-22T18:58:22.495Z,0.2
2023-01-22T19:03:30.661Z,0.2
2023-01-22T19:08:38.900Z,0.2
2023-01-22T19:13:47.005Z,0.2
2023-01-22T19:18:55.207Z,0.2
2023-01-22T19:24:03.384Z,0.2
2023-01-22T19:29:11.554Z,0.2
2023-01-22T19:34:19.754Z,0.2
2023-01-22T19:39:27.956Z,0.2
2023-01-22T19:44:36.105Z,0.2
2023-01-22T19:49:44.319Z,0.2
2023-01-22T19:54:52.477Z,0.2
2023-01-22T20:00:00.625Z,0.2
2023-01-22T20:05:08.885Z,0.2
2023-01-22T20:10:16.965Z,0.2
2023-01-22T20:15:25.124Z,0.2
2023-01-22T20:20:33.301Z,0.2
2023-01-22T20:25:41.538Z,0.2
2023-01-22T20:30:49.660Z,0.2
2023-01-22T20:35:57.843Z,0.2
2023-01-22T20:41:06.094Z,0.3
2023-01-22T20:46:14.198Z,0.3
2023-01-22T20:51:22.447Z,0.3
2023-01-22T20:56:30.549Z,0.3
2023-01-22T21:01:38.784Z,0.3
2023-01-22T21:06:46.924Z,0.3
2023-01-22T21:11:55.084Z,0.3
2023-01-22T21:17:03.252Z,0.3
2023-01-22T21:22:11.443Z,0.3
2023-01-22T21:27:19.606Z,0.3
2023-01-22T21:32:27.856Z,0.3
2023-01-22T21:37:35.957Z,0.3
2023-01-22T21:42:44.164Z,0.3
2023-01-22T21:47:52.328Z,0.3
2023-01-22T21:53:00.516Z,0.3
2023-01-22T21:58:08.676Z,0.2
2023-01-22T22:03:16.868Z,0.2
2023-01-22T22:08:25.143Z,0.3
2023-01-22T22:13:33.216Z,0.3
2023-01-22T22:18:41.377Z,0.2
2023-01-22T22:23:49.558Z,0.2
2023-01-22T22:28:57.736Z,0.2
2023-01-22T22:34:05.934Z,0.2
2023-01-22T22:39:14.100Z,0.2
2023-01-22T22:44:22.352Z,0.2
2023-01-22T22:49:30.520Z,0.2
2023-01-22T22:54:38.671Z,0.2
2023-01-22T22:59:46.821Z,0.2
2023-01-22T23:04:54.981Z,0.2
2023-01-22T23:10:03.156Z,0.2
2023-01-22T23:15:11.342Z,0.2
2023-01-22T23:20:19.507Z,0.1
2023-01-22T23:25:27.679Z,0.1
2023-01-22T23:30:35.857Z,0.1
2023-01-22T23:35:44.031Z,0.1
2023-01-22T23:40:52.206Z,0.1
2023-01-22T23:46:00.389Z,0.1
2023-01-22T23:51:08.586Z,0.1
2023-01-22T23:56:16.739Z,0.1
